Decoded Metar for KVBG (LOMPOC in CA, USA) (IATA:VBG) | Meteo·Mobile Aviation Weather
aviador You're here:

KVBG Decoded Metar

LOMPOC in CA, USA
Report Time2019-02-17 19:58:00
UTC Time2019-02-17 20:30:27
Flight Rules vfr VFR
Wind340° at 17 Gusting to 26 kt
W.Decomp.*RWY 30: 15.3 kt HW 7.5 kt RCW
W.Rank340° ranks 3
Current wind is above 340° avg. (8.9)
Visibility9999 m
Phenomena:N/A
Clouds:Scattered 027 Hf
Broken 060 Hf
Expected CloudBase > 1,600 ft AGL from Temp-Dew spread
Ceiling6,000 ft
Temp11°C (ISA -3)
Dew Point07°C (77% RH)
AAT4.2°C
QNH1019 hPa
Density Alt-89 ft
Elevation367 ft
Report Wrong Elevation
Raw Report
KVBG 171958Z AUTO 34017G26KT 9SM SCT027 BKN060 11/07 A3008 RMK AO2
PK WND 31026/32 RAE03RAB04E17 SLP190 P0000 T01060070 $=

Extra information for KVBG:More info

Metar Taf Metar & Taf Last 4 Metars F.Rules Stats Wind Profile Meteogram Temp Stats Airport Information Weather charts Add Link Nearby VenuesMetar ALERT Operation Metar Decoded Social comments

AIRNAV info for KVBG